sensor_id;sensor_type;location;lat;lon;timestamp;temperature;humidity
7292;DHT22;3687;47.648;8.204;2022-07-21T00:00:38;28.20;80.00
7292;DHT22;3687;47.648;8.204;2022-07-21T00:03:04;28.20;79.80
7292;DHT22;3687;47.648;8.204;2022-07-21T00:05:29;28.20;79.80
7292;DHT22;3687;47.648;8.204;2022-07-21T00:07:55;28.30;79.70
7292;DHT22;3687;47.648;8.204;2022-07-21T00:10:23;28.30;79.60
7292;DHT22;3687;47.648;8.204;2022-07-21T00:12:49;28.30;79.50
7292;DHT22;3687;47.648;8.204;2022-07-21T00:15:17;28.30;79.30
7292;DHT22;3687;47.648;8.204;2022-07-21T00:17:43;28.30;79.40
7292;DHT22;3687;47.648;8.204;2022-07-21T00:20:10;28.30;79.50
7292;DHT22;3687;47.648;8.204;2022-07-21T00:22:37;28.20;79.80
7292;DHT22;3687;47.648;8.204;2022-07-21T00:25:04;28.10;79.90
7292;DHT22;3687;47.648;8.204;2022-07-21T00:27:30;28.10;79.80
7292;DHT22;3687;47.648;8.204;2022-07-21T00:29:55;28.00;80.20
7292;DHT22;3687;47.648;8.204;2022-07-21T00:32:21;28.00;80.40
7292;DHT22;3687;47.648;8.204;2022-07-21T00:34:46;28.00;80.20
7292;DHT22;3687;47.648;8.204;2022-07-21T00:37:12;28.10;80.10
7292;DHT22;3687;47.648;8.204;2022-07-21T00:39:38;28.10;80.10
7292;DHT22;3687;47.648;8.204;2022-07-21T00:42:03;28.10;80.20
7292;DHT22;3687;47.648;8.204;2022-07-21T00:44:30;28.10;80.20
7292;DHT22;3687;47.648;8.204;2022-07-21T00:46:56;28.10;80.10
7292;DHT22;3687;47.648;8.204;2022-07-21T00:49:22;28.20;80.00
7292;DHT22;3687;47.648;8.204;2022-07-21T00:51:48;28.20;80.00
7292;DHT22;3687;47.648;8.204;2022-07-21T00:54:16;28.20;80.00
7292;DHT22;3687;47.648;8.204;2022-07-21T00:56:43;28.20;79.90
7292;DHT22;3687;47.648;8.204;2022-07-21T00:59:09;28.20;80.00
7292;DHT22;3687;47.648;8.204;2022-07-21T01:01:35;28.20;79.90
7292;DHT22;3687;47.648;8.204;2022-07-21T01:04:00;28.20;79.90
7292;DHT22;3687;47.648;8.204;2022-07-21T01:06:26;28.20;79.80
7292;DHT22;3687;47.648;8.204;2022-07-21T01:08:53;28.20;79.80
7292;DHT22;3687;47.648;8.204;2022-07-21T01:11:20;28.20;79.80
7292;DHT22;3687;47.648;8.204;2022-07-21T01:13:47;28.10;80.00
7292;DHT22;3687;47.648;8.204;2022-07-21T01:16:13;28.00;80.00
7292;DHT22;3687;47.648;8.204;2022-07-21T01:18:39;28.10;80.00
7292;DHT22;3687;47.648;8.204;2022-07-21T01:23:52;28.10;79.80
7292;DHT22;3687;47.648;8.204;2022-07-21T01:26:18;28.10;79.80
7292;DHT22;3687;47.648;8.204;2022-07-21T01:28:43;27.90;80.20
7292;DHT22;3687;47.648;8.204;2022-07-21T01:31:09;27.90;80.30
7292;DHT22;3687;47.648;8.204;2022-07-21T01:33:35;27.90;80.10
7292;DHT22;3687;47.648;8.204;2022-07-21T01:36:00;28.00;79.90
7292;DHT22;3687;47.648;8.204;2022-07-21T01:38:26;28.00;80.00
7292;DHT22;3687;47.648;8.204;2022-07-21T01:41:10;28.00;80.10
7292;DHT22;3687;47.648;8.204;2022-07-21T01:44:04;27.90;80.30
7292;DHT22;3687;47.648;8.204;2022-07-21T01:46:32;27.90;80.20
7292;DHT22;3687;47.648;8.204;2022-07-21T01:48:57;27.90;80.20
7292;DHT22;3687;47.648;8.204;2022-07-21T01:51:24;28.00;80.10
7292;DHT22;3687;47.648;8.204;2022-07-21T01:53:50;28.00;80.00
7292;DHT22;3687;47.648;8.204;2022-07-21T01:56:19;27.90;80.00
7292;DHT22;3687;47.648;8.204;2022-07-21T01:58:45;27.90;80.10
7292;DHT22;3687;47.648;8.204;2022-07-21T02:01:10;27.90;79.90
7292;DHT22;3687;47.648;8.204;2022-07-21T02:03:36;28.00;79.90
7292;DHT22;3687;47.648;8.204;2022-07-21T02:06:03;28.00;79.80
7292;DHT22;3687;47.648;8.204;2022-07-21T02:08:29;28.00;79.90
7292;DHT22;3687;47.648;8.204;2022-07-21T02:10:55;27.90;80.00
7292;DHT22;3687;47.648;8.204;2022-07-21T02:13:21;27.90;79.90
7292;DHT22;3687;47.648;8.204;2022-07-21T02:15:46;28.00;79.90
7292;DHT22;3687;47.648;8.204;2022-07-21T02:18:12;28.00;79.90
7292;DHT22;3687;47.648;8.204;2022-07-21T02:20:37;28.00;79.90
7292;DHT22;3687;47.648;8.204;2022-07-21T02:23:03;28.00;79.90
7292;DHT22;3687;47.648;8.204;2022-07-21T02:25:28;28.00;80.00
7292;DHT22;3687;47.648;8.204;2022-07-21T02:27:54;27.90;79.90
7292;DHT22;3687;47.648;8.204;2022-07-21T02:30:20;28.00;80.00
7292;DHT22;3687;47.648;8.204;2022-07-21T02:32:45;27.90;80.00
7292;DHT22;3687;47.648;8.204;2022-07-21T02:35:11;27.90;80.20
7292;DHT22;3687;47.648;8.204;2022-07-21T02:37:37;27.90;80.20
7292;DHT22;3687;47.648;8.204;2022-07-21T02:40:04;27.90;80.10
7292;DHT22;3687;47.648;8.204;2022-07-21T02:42:29;27.90;80.00
7292;DHT22;3687;47.648;8.204;2022-07-21T02:44:55;27.90;80.00
7292;DHT22;3687;47.648;8.204;2022-07-21T02:47:20;27.90;80.00
7292;DHT22;3687;47.648;8.204;2022-07-21T02:49:46;27.90;79.90
7292;DHT22;3687;47.648;8.204;2022-07-21T02:52:13;27.90;79.80
7292;DHT22;3687;47.648;8.204;2022-07-21T02:54:38;27.90;79.70
7292;DHT22;3687;47.648;8.204;2022-07-21T02:57:04;27.90;79.70
7292;DHT22;3687;47.648;8.204;2022-07-21T02:59:29;27.90;79.70
7292;DHT22;3687;47.648;8.204;2022-07-21T03:01:55;27.90;79.70
7292;DHT22;3687;47.648;8.204;2022-07-21T03:04:20;27.90;79.70
7292;DHT22;3687;47.648;8.204;2022-07-21T03:06:46;27.90;79.70
7292;DHT22;3687;47.648;8.204;2022-07-21T03:09:12;27.90;79.70
7292;DHT22;3687;47.648;8.204;2022-07-21T03:11:37;27.90;79.70
7292;DHT22;3687;47.648;8.204;2022-07-21T03:14:03;27.90;79.70
7292;DHT22;3687;47.648;8.204;2022-07-21T03:16:28;27.90;79.70
7292;DHT22;3687;47.648;8.204;2022-07-21T03:18:54;27.90;79.60
7292;DHT22;3687;47.648;8.204;2022-07-21T03:21:20;27.90;79.60
7292;DHT22;3687;47.648;8.204;2022-07-21T03:23:46;27.90;79.60
7292;DHT22;3687;47.648;8.204;2022-07-21T03:26:13;27.80;79.50
7292;DHT22;3687;47.648;8.204;2022-07-21T03:28:39;27.90;79.60
7292;DHT22;3687;47.648;8.204;2022-07-21T03:31:05;27.80;79.50
7292;DHT22;3687;47.648;8.204;2022-07-21T03:33:31;27.80;79.60
7292;DHT22;3687;47.648;8.204;2022-07-21T03:35:56;27.80;79.70
7292;DHT22;3687;47.648;8.204;2022-07-21T03:38:24;27.80;79.60
7292;DHT22;3687;47.648;8.204;2022-07-21T03:40:49;27.80;79.70
7292;DHT22;3687;47.648;8.204;2022-07-21T03:43:15;27.80;79.60
7292;DHT22;3687;47.648;8.204;2022-07-21T03:45:41;27.80;79.60
7292;DHT22;3687;47.648;8.204;2022-07-21T03:48:07;27.80;79.70
7292;DHT22;3687;47.648;8.204;2022-07-21T03:50:34;27.80;79.60
7292;DHT22;3687;47.648;8.204;2022-07-21T03:53:00;27.80;79.60
7292;DHT22;3687;47.648;8.204;2022-07-21T03:55:26;27.80;79.60
7292;DHT22;3687;47.648;8.204;2022-07-21T03:57:54;27.80;79.60
7292;DHT22;3687;47.648;8.204;2022-07-21T04:00:28;27.80;79.70
7292;DHT22;3687;47.648;8.204;2022-07-21T04:02:54;27.80;79.70
7292;DHT22;3687;47.648;8.204;2022-07-21T04:05:20;27.80;79.60
7292;DHT22;3687;47.648;8.204;2022-07-21T04:07:48;27.80;79.60
7292;DHT22;3687;47.648;8.204;2022-07-21T04:10:15;27.80;79.60
7292;DHT22;3687;47.648;8.204;2022-07-21T04:12:41;27.80;79.60
7292;DHT22;3687;47.648;8.204;2022-07-21T04:15:08;27.70;79.50
7292;DHT22;3687;47.648;8.204;2022-07-21T04:17:35;27.70;80.30
7292;DHT22;3687;47.648;8.204;2022-07-21T04:20:02;27.70;79.70
7292;DHT22;3687;47.648;8.204;2022-07-21T04:22:28;27.70;79.70
7292;DHT22;3687;47.648;8.204;2022-07-21T04:24:54;27.70;79.70
7292;DHT22;3687;47.648;8.204;2022-07-21T04:27:19;27.70;79.80
7292;DHT22;3687;47.648;8.204;2022-07-21T04:29:45;27.70;79.70
7292;DHT22;3687;47.648;8.204;2022-07-21T04:32:10;27.70;79.80
7292;DHT22;3687;47.648;8.204;2022-07-21T04:34:36;27.70;79.80
7292;DHT22;3687;47.648;8.204;2022-07-21T04:37:02;27.60;79.80
7292;DHT22;3687;47.648;8.204;2022-07-21T04:39:27;27.60;79.70
7292;DHT22;3687;47.648;8.204;2022-07-21T04:41:54;27.60;79.80
7292;DHT22;3687;47.648;8.204;2022-07-21T04:44:19;27.60;79.80
7292;DHT22;3687;47.648;8.204;2022-07-21T04:46:45;27.60;79.80
7292;DHT22;3687;47.648;8.204;2022-07-21T04:49:11;27.60;79.80
7292;DHT22;3687;47.648;8.204;2022-07-21T04:51:37;27.60;79.80
7292;DHT22;3687;47.648;8.204;2022-07-21T04:54:02;27.60;79.90
7292;DHT22;3687;47.648;8.204;2022-07-21T04:56:28;27.60;79.90
7292;DHT22;3687;47.648;8.204;2022-07-21T04:58:54;27.60;79.90
7292;DHT22;3687;47.648;8.204;2022-07-21T05:01:19;27.60;80.50
7292;DHT22;3687;47.648;8.204;2022-07-21T05:03:45;27.60;79.80
7292;DHT22;3687;47.648;8.204;2022-07-21T05:06:11;27.50;79.80
7292;DHT22;3687;47.648;8.204;2022-07-21T05:08:36;27.50;79.80
7292;DHT22;3687;47.648;8.204;2022-07-21T05:11:02;27.50;79.80
7292;DHT22;3687;47.648;8.204;2022-07-21T05:13:28;27.50;79.70
7292;DHT22;3687;47.648;8.204;2022-07-21T05:15:53;27.50;79.70
7292;DHT22;3687;47.648;8.204;2022-07-21T05:18:19;27.50;79.60
7292;DHT22;3687;47.648;8.204;2022-07-21T05:20:44;27.50;79.70
7292;DHT22;3687;47.648;8.204;2022-07-21T05:23:10;27.30;79.90
7292;DHT22;3687;47.648;8.204;2022-07-21T05:25:36;27.30;80.20
7292;DHT22;3687;47.648;8.204;2022-07-21T05:28:03;27.30;80.10
7292;DHT22;3687;47.648;8.204;2022-07-21T05:30:30;27.40;80.10
7292;DHT22;3687;47.648;8.204;2022-07-21T05:32:55;27.40;80.10
7292;DHT22;3687;47.648;8.204;2022-07-21T05:35:21;27.40;80.20
7292;DHT22;3687;47.648;8.204;2022-07-21T05:37:47;27.40;80.20
7292;DHT22;3687;47.648;8.204;2022-07-21T05:40:12;27.40;80.20
7292;DHT22;3687;47.648;8.204;2022-07-21T05:42:38;27.40;80.10
7292;DHT22;3687;47.648;8.204;2022-07-21T05:45:06;27.40;80.10
7292;DHT22;3687;47.648;8.204;2022-07-21T05:47:32;27.40;80.10
7292;DHT22;3687;47.648;8.204;2022-07-21T05:49:58;27.40;80.10
7292;DHT22;3687;47.648;8.204;2022-07-21T05:52:24;27.40;80.10
7292;DHT22;3687;47.648;8.204;2022-07-21T05:54:49;27.40;80.80
7292;DHT22;3687;47.648;8.204;2022-07-21T05:57:15;27.40;80.10
7292;DHT22;3687;47.648;8.204;2022-07-21T05:59:41;27.40;80.10
7292;DHT22;3687;47.648;8.204;2022-07-21T06:02:06;27.40;80.10
7292;DHT22;3687;47.648;8.204;2022-07-21T06:04:33;27.40;80.20
7292;DHT22;3687;47.648;8.204;2022-07-21T06:06:58;27.40;80.20
7292;DHT22;3687;47.648;8.204;2022-07-21T06:09:24;27.40;80.20
7292;DHT22;3687;47.648;8.204;2022-07-21T06:11:49;27.40;80.20
7292;DHT22;3687;47.648;8.204;2022-07-21T06:14:15;27.40;80.20
7292;DHT22;3687;47.648;8.204;2022-07-21T06:16:40;27.40;81.00
7292;DHT22;3687;47.648;8.204;2022-07-21T06:19:06;27.40;80.20
7292;DHT22;3687;47.648;8.204;2022-07-21T06:21:32;27.40;80.30
7292;DHT22;3687;47.648;8.204;2022-07-21T06:23:58;27.40;80.40
7292;DHT22;3687;47.648;8.204;2022-07-21T06:26:24;27.40;80.30
7292;DHT22;3687;47.648;8.204;2022-07-21T06:28:49;27.40;80.30
7292;DHT22;3687;47.648;8.204;2022-07-21T06:31:15;27.40;80.30
7292;DHT22;3687;47.648;8.204;2022-07-21T06:33:40;27.40;80.40
7292;DHT22;3687;47.648;8.204;2022-07-21T06:36:07;27.40;80.50
7292;DHT22;3687;47.648;8.204;2022-07-21T06:38:33;27.30;80.50
7292;DHT22;3687;47.648;8.204;2022-07-21T06:40:58;27.40;80.60
7292;DHT22;3687;47.648;8.204;2022-07-21T06:43:24;27.40;80.60
7292;DHT22;3687;47.648;8.204;2022-07-21T06:45:49;27.40;80.60
7292;DHT22;3687;47.648;8.204;2022-07-21T06:48:16;27.40;80.70
7292;DHT22;3687;47.648;8.204;2022-07-21T06:50:41;27.40;80.70
7292;DHT22;3687;47.648;8.204;2022-07-21T06:53:07;27.40;80.80
7292;DHT22;3687;47.648;8.204;2022-07-21T06:55:33;27.40;80.70
7292;DHT22;3687;47.648;8.204;2022-07-21T06:58:18;27.30;81.10
7292;DHT22;3687;47.648;8.204;2022-07-21T07:00:45;27.30;81.20
7292;DHT22;3687;47.648;8.204;2022-07-21T07:03:11;27.30;81.40
7292;DHT22;3687;47.648;8.204;2022-07-21T07:05:37;27.10;81.60
7292;DHT22;3687;47.648;8.204;2022-07-21T07:08:04;27.00;81.80
7292;DHT22;3687;47.648;8.204;2022-07-21T07:10:30;27.10;81.90
7292;DHT22;3687;47.648;8.204;2022-07-21T07:12:55;27.10;81.90
7292;DHT22;3687;47.648;8.204;2022-07-21T07:15:22;27.10;81.80
7292;DHT22;3687;47.648;8.204;2022-07-21T07:17:48;27.10;81.60
7292;DHT22;3687;47.648;8.204;2022-07-21T07:20:14;27.00;82.60
7292;DHT22;3687;47.648;8.204;2022-07-21T07:22:39;27.10;81.80
7292;DHT22;3687;47.648;8.204;2022-07-21T07:25:05;27.10;82.30
7292;DHT22;3687;47.648;8.204;2022-07-21T07:27:31;27.10;81.30
7292;DHT22;3687;47.648;8.204;2022-07-21T07:29:57;27.20;81.10
7292;DHT22;3687;47.648;8.204;2022-07-21T07:32:22;27.20;80.80
7292;DHT22;3687;47.648;8.204;2022-07-21T07:34:48;27.20;80.50
7292;DHT22;3687;47.648;8.204;2022-07-21T07:37:13;27.20;80.30
7292;DHT22;3687;47.648;8.204;2022-07-21T07:39:39;27.20;80.10
7292;DHT22;3687;47.648;8.204;2022-07-21T07:42:06;27.10;79.80
7292;DHT22;3687;47.648;8.204;2022-07-21T07:44:31;27.10;79.70
7292;DHT22;3687;47.648;8.204;2022-07-21T07:46:57;27.20;79.50
7292;DHT22;3687;47.648;8.204;2022-07-21T07:49:23;27.20;79.30
7292;DHT22;3687;47.648;8.204;2022-07-21T07:51:48;27.10;79.20
7292;DHT22;3687;47.648;8.204;2022-07-21T07:54:14;27.10;79.10
7292;DHT22;3687;47.648;8.204;2022-07-21T07:56:40;27.10;79.00
7292;DHT22;3687;47.648;8.204;2022-07-21T07:59:07;27.20;78.90
7292;DHT22;3687;47.648;8.204;2022-07-21T08:01:33;27.10;78.70
7292;DHT22;3687;47.648;8.204;2022-07-21T08:03:58;27.10;78.60
7292;DHT22;3687;47.648;8.204;2022-07-21T08:06:24;27.10;78.60
7292;DHT22;3687;47.648;8.204;2022-07-21T08:08:49;27.10;78.50
7292;DHT22;3687;47.648;8.204;2022-07-21T08:11:15;27.10;78.40
7292;DHT22;3687;47.648;8.204;2022-07-21T08:13:41;27.10;78.40
7292;DHT22;3687;47.648;8.204;2022-07-21T08:16:07;27.00;78.90
7292;DHT22;3687;47.648;8.204;2022-07-21T08:18:33;27.00;78.20
7292;DHT22;3687;47.648;8.204;2022-07-21T08:20:58;27.00;78.10
7292;DHT22;3687;47.648;8.204;2022-07-21T08:23:24;27.00;78.10
7292;DHT22;3687;47.648;8.204;2022-07-21T08:25:49;27.00;77.90
7292;DHT22;3687;47.648;8.204;2022-07-21T08:28:15;27.00;77.80
7292;DHT22;3687;47.648;8.204;2022-07-21T08:30:41;27.00;77.70
7292;DHT22;3687;47.648;8.204;2022-07-21T08:33:07;27.00;77.60
7292;DHT22;3687;47.648;8.204;2022-07-21T08:35:33;27.00;77.60
7292;DHT22;3687;47.648;8.204;2022-07-21T08:38:04;27.00;77.60
7292;DHT22;3687;47.648;8.204;2022-07-21T08:40:33;27.00;77.50
7292;DHT22;3687;47.648;8.204;2022-07-21T08:43:00;27.00;77.40
7292;DHT22;3687;47.648;8.204;2022-07-21T08:45:25;27.00;77.20
7292;DHT22;3687;47.648;8.204;2022-07-21T08:47:54;27.00;77.10
7292;DHT22;3687;47.648;8.204;2022-07-21T08:50:24;27.00;77.00
7292;DHT22;3687;47.648;8.204;2022-07-21T08:52:50;27.00;76.90
7292;DHT22;3687;47.648;8.204;2022-07-21T08:55:16;27.00;76.80
7292;DHT22;3687;47.648;8.204;2022-07-21T08:57:42;27.00;77.50
7292;DHT22;3687;47.648;8.204;2022-07-21T09:00:09;27.00;76.70
7292;DHT22;3687;47.648;8.204;2022-07-21T09:02:36;27.00;76.50
7292;DHT22;3687;47.648;8.204;2022-07-21T09:05:05;27.00;76.40
7292;DHT22;3687;47.648;8.204;2022-07-21T09:07:51;27.00;76.20
7292;DHT22;3687;47.648;8.204;2022-07-21T09:10:25;27.00;76.60
7292;DHT22;3687;47.648;8.204;2022-07-21T09:12:56;27.00;75.90
7292;DHT22;3687;47.648;8.204;2022-07-21T09:15:24;27.00;75.80
7292;DHT22;3687;47.648;8.204;2022-07-21T09:18:11;27.00;75.70
7292;DHT22;3687;47.648;8.204;2022-07-21T09:20:39;26.90;75.60
7292;DHT22;3687;47.648;8.204;2022-07-21T09:23:13;26.90;75.60
7292;DHT22;3687;47.648;8.204;2022-07-21T09:25:46;27.00;75.60
7292;DHT22;3687;47.648;8.204;2022-07-21T09:30:52;27.00;75.40
7292;DHT22;3687;47.648;8.204;2022-07-21T09:33:22;27.00;75.30
7292;DHT22;3687;47.648;8.204;2022-07-21T09:35:57;27.00;75.30
7292;DHT22;3687;47.648;8.204;2022-07-21T09:38:24;27.00;75.40
7292;DHT22;3687;47.648;8.204;2022-07-21T09:40:50;27.00;75.30
7292;DHT22;3687;47.648;8.204;2022-07-21T09:43:49;27.00;75.20
7292;DHT22;3687;47.648;8.204;2022-07-21T09:46:25;27.00;75.10
7292;DHT22;3687;47.648;8.204;2022-07-21T09:48:55;27.00;75.30
7292;DHT22;3687;47.648;8.204;2022-07-21T09:51:30;27.00;75.20
7292;DHT22;3687;47.648;8.204;2022-07-21T09:56:39;27.00;75.10
7292;DHT22;3687;47.648;8.204;2022-07-21T09:59:06;27.00;75.00
7292;DHT22;3687;47.648;8.204;2022-07-21T10:01:33;27.00;74.90
7292;DHT22;3687;47.648;8.204;2022-07-21T10:04:01;27.10;74.90
7292;DHT22;3687;47.648;8.204;2022-07-21T10:06:29;27.10;74.90
7292;DHT22;3687;47.648;8.204;2022-07-21T10:08:57;27.10;74.80
7292;DHT22;3687;47.648;8.204;2022-07-21T10:11:23;27.10;74.70
7292;DHT22;3687;47.648;8.204;2022-07-21T10:13:49;27.10;74.60
7292;DHT22;3687;47.648;8.204;2022-07-21T10:16:15;27.10;74.50
7292;DHT22;3687;47.648;8.204;2022-07-21T10:24:21;27.20;74.30
7292;DHT22;3687;47.648;8.204;2022-07-21T10:27:10;27.10;74.20
7292;DHT22;3687;47.648;8.204;2022-07-21T10:32:30;27.20;74.10
7292;DHT22;3687;47.648;8.204;2022-07-21T10:34:58;27.20;73.90
7292;DHT22;3687;47.648;8.204;2022-07-21T10:45:37;27.10;73.40
7292;DHT22;3687;47.648;8.204;2022-07-21T10:48:06;27.20;73.30
7292;DHT22;3687;47.648;8.204;2022-07-21T10:50:36;27.20;73.20
7292;DHT22;3687;47.648;8.204;2022-07-21T10:53:12;27.20;73.10
7292;DHT22;3687;47.648;8.204;2022-07-21T10:55:38;27.20;73.00
7292;DHT22;3687;47.648;8.204;2022-07-21T11:00:59;27.20;72.60
7292;DHT22;3687;47.648;8.204;2022-07-21T11:06:15;27.20;72.40
7292;DHT22;3687;47.648;8.204;2022-07-21T11:08:47;27.20;72.20
7292;DHT22;3687;47.648;8.204;2022-07-21T11:19:31;27.20;71.40
7292;DHT22;3687;47.648;8.204;2022-07-21T11:21:59;27.20;71.30
7292;DHT22;3687;47.648;8.204;2022-07-21T11:24:26;27.20;71.50
7292;DHT22;3687;47.648;8.204;2022-07-21T11:27:07;27.20;71.40
7292;DHT22;3687;47.648;8.204;2022-07-21T11:29:35;27.20;71.60
7292;DHT22;3687;47.648;8.204;2022-07-21T11:32:01;27.20;71.50
7292;DHT22;3687;47.648;8.204;2022-07-21T11:37:25;27.30;71.40
7292;DHT22;3687;47.648;8.204;2022-07-21T11:39:51;27.30;71.40
7292;DHT22;3687;47.648;8.204;2022-07-21T11:42:17;27.30;71.20
7292;DHT22;3687;47.648;8.204;2022-07-21T11:44:43;27.20;71.00
7292;DHT22;3687;47.648;8.204;2022-07-21T11:47:13;27.30;71.00
7292;DHT22;3687;47.648;8.204;2022-07-21T11:49:40;27.30;70.90
7292;DHT22;3687;47.648;8.204;2022-07-21T11:52:09;27.30;71.00
7292;DHT22;3687;47.648;8.204;2022-07-21T11:54:37;27.30;71.10
7292;DHT22;3687;47.648;8.204;2022-07-21T11:57:06;27.30;71.10
7292;DHT22;3687;47.648;8.204;2022-07-21T11:59:33;27.30;71.10
7292;DHT22;3687;47.648;8.204;2022-07-21T12:04:46;27.30;71.10
7292;DHT22;3687;47.648;8.204;2022-07-21T12:07:30;27.40;71.20
7292;DHT22;3687;47.648;8.204;2022-07-21T12:10:23;27.30;71.10
7292;DHT22;3687;47.648;8.204;2022-07-21T12:12:50;27.30;71.10
7292;DHT22;3687;47.648;8.204;2022-07-21T12:15:23;27.40;71.20
7292;DHT22;3687;47.648;8.204;2022-07-21T12:17:57;27.40;71.20
7292;DHT22;3687;47.648;8.204;2022-07-21T12:20:31;27.40;71.20
7292;DHT22;3687;47.648;8.204;2022-07-21T12:22:59;27.40;71.90
7292;DHT22;3687;47.648;8.204;2022-07-21T12:25:37;27.40;71.10
7292;DHT22;3687;47.648;8.204;2022-07-21T12:28:05;27.40;71.10
7292;DHT22;3687;47.648;8.204;2022-07-21T12:33:19;27.50;71.20
7292;DHT22;3687;47.648;8.204;2022-07-21T12:38:36;27.50;71.00
7292;DHT22;3687;47.648;8.204;2022-07-21T12:41:02;27.50;71.00
7292;DHT22;3687;47.648;8.204;2022-07-21T12:43:28;27.50;71.10
7292;DHT22;3687;47.648;8.204;2022-07-21T12:46:09;27.50;71.00
7292;DHT22;3687;47.648;8.204;2022-07-21T12:48:35;27.50;71.00
7292;DHT22;3687;47.648;8.204;2022-07-21T12:53:45;27.50;70.90
7292;DHT22;3687;47.648;8.204;2022-07-21T12:56:17;27.50;70.90
7292;DHT22;3687;47.648;8.204;2022-07-21T12:58:43;27.50;70.90
7292;DHT22;3687;47.648;8.204;2022-07-21T13:01:09;27.50;70.90
7292;DHT22;3687;47.648;8.204;2022-07-21T13:03:35;27.60;71.00
7292;DHT22;3687;47.648;8.204;2022-07-21T13:06:03;27.50;70.90
7292;DHT22;3687;47.648;8.204;2022-07-21T13:08:29;27.60;71.00
7292;DHT22;3687;47.648;8.204;2022-07-21T13:10:55;27.60;71.00
7292;DHT22;3687;47.648;8.204;2022-07-21T13:13:20;27.60;70.90
7292;DHT22;3687;47.648;8.204;2022-07-21T13:15:46;27.60;70.90
7292;DHT22;3687;47.648;8.204;2022-07-21T13:18:12;27.60;70.80
7292;DHT22;3687;47.648;8.204;2022-07-21T13:20:38;27.60;70.70
7292;DHT22;3687;47.648;8.204;2022-07-21T13:23:04;27.70;70.70
7292;DHT22;3687;47.648;8.204;2022-07-21T13:25:30;27.60;70.60
7292;DHT22;3687;47.648;8.204;2022-07-21T13:27:56;27.70;70.60
7292;DHT22;3687;47.648;8.204;2022-07-21T13:30:21;27.60;70.40
7292;DHT22;3687;47.648;8.204;2022-07-21T13:32:47;27.70;70.40
7292;DHT22;3687;47.648;8.204;2022-07-21T13:35:13;27.70;70.40
7292;DHT22;3687;47.648;8.204;2022-07-21T13:37:39;27.70;70.40
7292;DHT22;3687;47.648;8.204;2022-07-21T13:40:05;27.70;70.40
7292;DHT22;3687;47.648;8.204;2022-07-21T13:42:31;27.70;70.30
7292;DHT22;3687;47.648;8.204;2022-07-21T13:44:57;27.70;70.20
7292;DHT22;3687;47.648;8.204;2022-07-21T13:47:22;27.80;70.30
7292;DHT22;3687;47.648;8.204;2022-07-21T13:49:48;27.80;70.20
7292;DHT22;3687;47.648;8.204;2022-07-21T13:52:14;27.80;70.10
7292;DHT22;3687;47.648;8.204;2022-07-21T13:54:39;27.80;70.00
7292;DHT22;3687;47.648;8.204;2022-07-21T13:57:05;27.80;70.10
7292;DHT22;3687;47.648;8.204;2022-07-21T13:59:30;27.90;70.10
7292;DHT22;3687;47.648;8.204;2022-07-21T14:01:56;27.80;69.90
7292;DHT22;3687;47.648;8.204;2022-07-21T14:04:22;27.80;70.40
7292;DHT22;3687;47.648;8.204;2022-07-21T14:06:48;27.90;69.70
7292;DHT22;3687;47.648;8.204;2022-07-21T14:09:15;27.90;69.70
7292;DHT22;3687;47.648;8.204;2022-07-21T14:11:41;27.90;69.50
7292;DHT22;3687;47.648;8.204;2022-07-21T14:14:07;27.90;69.40
7292;DHT22;3687;47.648;8.204;2022-07-21T14:16:33;27.90;69.20
7292;DHT22;3687;47.648;8.204;2022-07-21T14:18:58;27.90;69.10
7292;DHT22;3687;47.648;8.204;2022-07-21T14:21:25;27.90;68.90
7292;DHT22;3687;47.648;8.204;2022-07-21T14:23:51;27.90;68.80
7292;DHT22;3687;47.648;8.204;2022-07-21T14:26:37;28.00;68.80
7292;DHT22;3687;47.648;8.204;2022-07-21T14:29:04;28.00;68.80
7292;DHT22;3687;47.648;8.204;2022-07-21T14:31:30;28.00;68.80
7292;DHT22;3687;47.648;8.204;2022-07-21T14:33:56;28.00;68.70
7292;DHT22;3687;47.648;8.204;2022-07-21T14:36:21;28.00;68.60
7292;DHT22;3687;47.648;8.204;2022-07-21T14:38:47;28.10;68.70
7292;DHT22;3687;47.648;8.204;2022-07-21T14:41:12;28.00;68.50
7292;DHT22;3687;47.648;8.204;2022-07-21T14:43:38;28.10;68.50
7292;DHT22;3687;47.648;8.204;2022-07-21T14:46:03;28.10;68.30
7292;DHT22;3687;47.648;8.204;2022-07-21T14:48:29;28.10;68.10
7292;DHT22;3687;47.648;8.204;2022-07-21T14:50:54;28.10;68.00
7292;DHT22;3687;47.648;8.204;2022-07-21T14:53:20;28.10;67.90
7292;DHT22;3687;47.648;8.204;2022-07-21T14:55:46;28.10;67.90
7292;DHT22;3687;47.648;8.204;2022-07-21T14:58:11;28.10;67.80
7292;DHT22;3687;47.648;8.204;2022-07-21T15:00:37;28.10;67.60
7292;DHT22;3687;47.648;8.204;2022-07-21T15:03:02;28.20;67.50
7292;DHT22;3687;47.648;8.204;2022-07-21T15:05:28;28.10;67.40
7292;DHT22;3687;47.648;8.204;2022-07-21T15:07:54;28.20;67.30
7292;DHT22;3687;47.648;8.204;2022-07-21T15:10:19;28.20;67.20
7292;DHT22;3687;47.648;8.204;2022-07-21T15:12:45;28.20;67.00
7292;DHT22;3687;47.648;8.204;2022-07-21T15:15:10;28.20;66.60
7292;DHT22;3687;47.648;8.204;2022-07-21T15:17:36;28.20;66.60
7292;DHT22;3687;47.648;8.204;2022-07-21T15:20:03;28.20;66.50
7292;DHT22;3687;47.648;8.204;2022-07-21T15:22:29;28.20;66.30
7292;DHT22;3687;47.648;8.204;2022-07-21T15:24:57;28.30;66.10
7292;DHT22;3687;47.648;8.204;2022-07-21T15:27:24;28.20;65.90
7292;DHT22;3687;47.648;8.204;2022-07-21T15:29:49;28.20;65.70
7292;DHT22;3687;47.648;8.204;2022-07-21T15:32:15;28.20;65.50
7292;DHT22;3687;47.648;8.204;2022-07-21T15:34:41;28.30;65.50
7292;DHT22;3687;47.648;8.204;2022-07-21T15:37:06;28.30;65.40
7292;DHT22;3687;47.648;8.204;2022-07-21T15:39:32;28.30;65.70
7292;DHT22;3687;47.648;8.204;2022-07-21T15:41:58;28.30;65.40
7292;DHT22;3687;47.648;8.204;2022-07-21T15:44:24;28.30;65.40
7292;DHT22;3687;47.648;8.204;2022-07-21T15:46:50;28.30;65.30
7292;DHT22;3687;47.648;8.204;2022-07-21T15:49:16;28.30;65.30
7292;DHT22;3687;47.648;8.204;2022-07-21T15:51:44;28.30;65.20
7292;DHT22;3687;47.648;8.204;2022-07-21T15:54:11;28.30;65.10
7292;DHT22;3687;47.648;8.204;2022-07-21T15:56:36;28.30;65.00
7292;DHT22;3687;47.648;8.204;2022-07-21T15:59:02;28.30;65.00
7292;DHT22;3687;47.648;8.204;2022-07-21T16:01:46;28.40;65.10
7292;DHT22;3687;47.648;8.204;2022-07-21T16:04:12;28.40;65.10
7292;DHT22;3687;47.648;8.204;2022-07-21T16:06:37;28.40;65.00
7292;DHT22;3687;47.648;8.204;2022-07-21T16:09:03;28.40;64.90
7292;DHT22;3687;47.648;8.204;2022-07-21T16:11:30;28.40;64.90
7292;DHT22;3687;47.648;8.204;2022-07-21T16:13:56;28.40;64.90
7292;DHT22;3687;47.648;8.204;2022-07-21T16:16:21;28.40;64.90
7292;DHT22;3687;47.648;8.204;2022-07-21T16:18:47;28.40;64.90
7292;DHT22;3687;47.648;8.204;2022-07-21T16:21:12;28.40;64.80
7292;DHT22;3687;47.648;8.204;2022-07-21T16:23:38;28.40;64.90
7292;DHT22;3687;47.648;8.204;2022-07-21T16:26:04;28.50;64.80
7292;DHT22;3687;47.648;8.204;2022-07-21T16:28:29;28.50;64.90
7292;DHT22;3687;47.648;8.204;2022-07-21T16:30:55;28.50;64.90
7292;DHT22;3687;47.648;8.204;2022-07-21T16:33:20;28.50;64.70
7292;DHT22;3687;47.648;8.204;2022-07-21T16:35:46;28.50;64.60
7292;DHT22;3687;47.648;8.204;2022-07-21T16:38:12;28.50;64.70
7292;DHT22;3687;47.648;8.204;2022-07-21T16:40:37;28.50;64.60
7292;DHT22;3687;47.648;8.204;2022-07-21T16:43:03;28.50;64.70
7292;DHT22;3687;47.648;8.204;2022-07-21T16:45:28;28.50;64.70
7292;DHT22;3687;47.648;8.204;2022-07-21T16:47:54;28.50;64.70
7292;DHT22;3687;47.648;8.204;2022-07-21T16:50:19;28.50;64.80
7292;DHT22;3687;47.648;8.204;2022-07-21T16:52:45;28.50;64.80